Time;durP1;ratioP1;P1;durP2;ratioP2;P2;SDS_P1;SDS_P2;PMS_P1;PMS_P2;Temp;Humidity;BMP_temperature;BMP_pressure;BME280_temperature;BME280_humidity;BME280_pressure;Samples;Min_cycle;Max_cycle;Signal;HPM_P1;HPM_P2
2021/01/31 00:00:00;;;;;;;17.08;8.40;;;;;;;0.73;95.23;99787.75;5047930;28;20396;-70
2021/01/31 00:02:26;;;;;;;18.50;9.18;;;;;;;0.74;94.93;99792.94;5048171;28;20044;-70
2021/01/31 00:04:52;;;;;;;18.75;9.60;;;;;;;0.67;95.10;99788.00;5049195;28;20029;-70
2021/01/31 00:07:19;;;;;;;19.17;9.10;;;;;;;0.73;94.59;99793.91;5047991;28;20048;-70
2021/01/31 00:09:47;;;;;;;19.48;9.93;;;;;;;0.68;95.29;99805.56;5046232;28;20128;-70
2021/01/31 00:12:13;;;;;;;21.23;9.63;;;;;;;0.57;96.17;99798.03;5047461;28;20087;-69
2021/01/31 00:14:38;;;;;;;19.15;9.55;;;;;;;0.66;96.24;99795.03;5048760;28;20045;-70
2021/01/31 00:17:05;;;;;;;17.88;9.95;;;;;;;0.63;95.90;99797.78;5045413;28;20041;-69
2021/01/31 00:19:30;;;;;;;16.88;9.60;;;;;;;0.63;96.13;99797.78;5047077;28;20032;-70
2021/01/31 00:22:01;;;;;;;18.33;9.27;;;;;;;0.66;95.68;99800.31;5047901;28;20067;-70
2021/01/31 00:24:29;;;;;;;19.73;9.93;;;;;;;0.69;95.67;99805.47;5046419;28;20487;-69
2021/01/31 00:26:55;;;;;;;18.77;9.68;;;;;;;0.62;96.30;99805.75;5043496;28;20044;-69
2021/01/31 00:29:20;;;;;;;17.30;9.10;;;;;;;0.59;96.59;99811.19;5046272;28;20484;-70
2021/01/31 00:31:47;;;;;;;17.98;9.10;;;;;;;0.59;96.69;99809.41;5047542;28;20090;-70
2021/01/31 00:34:13;;;;;;;19.42;10.00;;;;;;;0.73;96.03;99814.16;5047501;28;20083;-70
2021/01/31 00:36:39;;;;;;;18.90;9.15;;;;;;;0.58;96.73;99815.59;5048219;28;20056;-69
2021/01/31 00:39:04;;;;;;;19.00;9.60;;;;;;;0.59;96.55;99812.03;5062970;28;20035;-70
2021/01/31 00:41:29;;;;;;;19.25;10.20;;;;;;;0.67;96.23;99814.41;5048538;28;20036;-69
2021/01/31 00:44:02;;;;;;;19.20;9.95;;;;;;;0.68;95.51;99824.03;5047124;28;20028;-69
2021/01/31 00:46:35;;;;;;;21.27;9.95;;;;;;;0.52;96.62;99818.47;5047541;28;20513;-70
2021/01/31 00:49:02;;;;;;;20.80;10.25;;;;;;;0.55;96.86;99823.66;5047274;28;20031;-70
2021/01/31 00:51:28;;;;;;;19.77;11.25;;;;;;;0.55;97.45;99821.00;5047386;28;20029;-70
2021/01/31 00:53:54;;;;;;;20.95;10.80;;;;;;;0.49;97.19;99818.59;5048433;28;20037;-69
2021/01/31 00:56:20;;;;;;;21.17;10.50;;;;;;;0.51;97.35;99818.53;5050601;28;20055;-69
2021/01/31 00:58:46;;;;;;;19.67;10.40;;;;;;;0.52;97.45;99810.53;5031293;28;20172;-69
2021/01/31 01:01:17;;;;;;;20.13;9.80;;;;;;;0.61;96.99;99812.84;5047875;28;20029;-69
2021/01/31 01:03:43;;;;;;;19.35;8.95;;;;;;;0.59;97.42;99819.97;5048509;28;20082;-69
2021/01/31 01:06:11;;;;;;;20.50;10.38;;;;;;;0.48;97.68;99811.59;5042977;28;20040;-69
2021/01/31 01:08:37;;;;;;;21.00;10.13;;;;;;;0.48;97.51;99814.22;5046408;28;20029;-69
2021/01/31 01:11:03;;;;;;;19.42;10.13;;;;;;;0.48;97.62;99822.16;5047079;28;20041;-69
2021/01/31 01:13:28;;;;;;;17.70;9.43;;;;;;;0.45;97.75;99822.25;5050432;28;20329;-70
2021/01/31 01:15:54;;;;;;;19.27;9.77;;;;;;;0.36;97.52;99822.59;5048347;28;20103;-69
2021/01/31 01:18:20;;;;;;;19.38;9.90;;;;;;;0.44;97.18;99825.81;5050881;28;20098;-69
2021/01/31 01:20:46;;;;;;;21.65;9.75;;;;;;;0.37;97.81;99832.25;5032503;28;20450;-69
2021/01/31 01:23:11;;;;;;;17.80;9.00;;;;;;;0.35;98.17;99832.31;5050022;28;20056;-69
2021/01/31 01:25:37;;;;;;;18.75;10.23;;;;;;;0.36;98.12;99833.16;5048471;28;21536;-69
2021/01/31 01:28:03;;;;;;;20.63;10.25;;;;;;;0.30;98.48;99834.25;5049367;28;20043;-69
2021/01/31 01:30:30;;;;;;;19.08;9.77;;;;;;;0.26;98.51;99840.53;5046229;28;20045;-69
2021/01/31 01:32:57;;;;;;;18.95;9.63;;;;;;;0.23;98.86;99847.72;5044543;28;20037;-69
2021/01/31 01:35:22;;;;;;;21.50;9.80;;;;;;;0.35;98.33;99844.63;5047462;28;20033;-69
2021/01/31 01:37:49;;;;;;;22.02;9.73;;;;;;;0.27;98.58;99836.13;5049942;28;20593;-69
2021/01/31 01:40:37;;;;;;;17.85;9.52;;;;;;;0.25;99.00;99835.31;5049486;28;20271;-69
2021/01/31 01:43:03;;;;;;;22.40;10.73;;;;;;;0.17;99.14;99832.13;5047844;28;20037;-69
2021/01/31 01:45:30;;;;;;;18.65;9.27;;;;;;;0.31;99.15;99827.16;5041844;28;20036;-70
2021/01/31 01:48:03;;;;;;;18.35;9.52;;;;;;;0.28;98.47;99837.84;5049514;28;20506;-69
2021/01/31 01:50:38;;;;;;;21.48;10.73;;;;;;;0.15;98.95;99824.25;5045504;28;20039;-69
2021/01/31 01:53:07;;;;;;;20.70;10.43;;;;;;;0.18;99.03;99818.88;5043466;28;20044;-69
2021/01/31 01:55:36;;;;;;;19.27;10.18;;;;;;;0.19;98.71;99822.34;5049609;28;20087;-69
2021/01/31 01:58:11;;;;;;;17.77;9.38;;;;;;;0.14;99.19;99819.88;5046826;28;20021;-69
2021/01/31 02:00:36;;;;;;;16.48;8.98;;;;;;;0.24;98.60;99817.78;5048498;28;20422;-69
2021/01/31 02:03:10;;;;;;;18.27;9.85;;;;;;;0.12;98.98;99820.88;5046871;28;20121;-69
2021/01/31 02:05:37;;;;;;;20.45;10.05;;;;;;;0.03;99.24;99826.47;5053991;28;20041;-69
2021/01/31 02:08:03;;;;;;;22.35;10.95;;;;;;;0.04;99.54;99820.28;5055223;28;20043;-70
2021/01/31 02:10:29;;;;;;;20.42;10.18;;;;;;;0.00;99.32;99823.00;5054855;28;20033;-69
2021/01/31 02:12:59;;;;;;;18.52;9.95;;;;;;;-0.11;99.73;99825.16;5054346;28;20123;-69
2021/01/31 02:15:25;;;;;;;19.30;10.05;;;;;;;-0.12;100.00;99823.44;5054720;28;20037;-69
2021/01/31 02:18:06;;;;;;;20.77;10.18;;;;;;;-0.03;100.00;99827.53;5057869;28;20051;-69
2021/01/31 02:20:47;;;;;;;22.83;10.73;;;;;;;-0.04;100.00;99821.41;5054587;28;20025;-69
2021/01/31 02:23:32;;;;;;;22.30;11.00;;;;;;;-0.13;100.00;99832.28;5050157;28;20106;-69
2021/01/31 02:26:11;;;;;;;23.73;11.38;;;;;;;-0.18;100.00;99834.19;5054801;28;20032;-69
2021/01/31 02:28:47;;;;;;;21.33;10.65;;;;;;;-0.24;100.00;99833.56;5054610;28;20033;-69
2021/01/31 02:32:03;;;;;;;22.02;10.93;;;;;;;-0.26;100.00;99843.31;5053687;28;20471;-69
2021/01/31 02:34:40;;;;;;;22.70;10.80;;;;;;;-0.19;100.00;99843.06;5030310;28;20178;-70
2021/01/31 02:37:27;;;;;;;26.42;11.02;;;;;;;-0.21;100.00;99839.59;5047560;28;20272;-69
2021/01/31 02:40:09;;;;;;;22.85;11.07;;;;;;;-0.24;100.00;99839.69;5050868;28;20069;-69
2021/01/31 02:43:16;;;;;;;21.88;10.38;;;;;;;-0.19;100.00;99844.84;5055346;28;20029;-69
2021/01/31 02:45:50;;;;;;;21.73;9.95;;;;;;;-0.24;100.00;99842.31;4981725;28;20400;-69
2021/01/31 02:48:18;;;;;;;24.98;11.48;;;;;;;-0.27;100.00;99841.59;5044871;28;20060;-70
2021/01/31 02:50:48;;;;;;;20.08;10.32;;;;;;;-0.24;100.00;99834.41;5054849;28;20327;-69
2021/01/31 02:53:31;;;;;;;23.83;10.95;;;;;;;-0.29;100.00;99836.34;5050951;28;20037;-70
2021/01/31 02:56:23;;;;;;;23.67;10.55;;;;;;;-0.27;100.00;99839.81;5054348;28;20401;-69
2021/01/31 02:58:58;;;;;;;23.65;11.80;;;;;;;-0.34;100.00;99837.44;5053265;28;20025;-69
2021/01/31 03:01:39;;;;;;;22.63;10.90;;;;;;;-0.36;100.00;99829.56;5069875;28;20044;-70
2021/01/31 03:04:14;;;;;;;20.20;10.00;;;;;;;-0.34;100.00;99830.38;5054526;28;20037;-69
2021/01/31 03:06:53;;;;;;;23.45;11.02;;;;;;;-0.46;100.00;99839.56;5052021;28;20040;-69
2021/01/31 03:09:47;;;;;;;21.27;10.88;;;;;;;-0.47;100.00;99831.72;5049233;28;20040;-70
2021/01/31 03:12:19;;;;;;;20.15;10.52;;;;;;;-0.44;100.00;99837.75;5045493;28;20171;-69
2021/01/31 03:14:51;;;;;;;21.83;10.75;;;;;;;-0.35;100.00;99828.66;5053925;28;20039;-69
2021/01/31 03:17:23;;;;;;;22.52;10.88;;;;;;;-0.37;100.00;99838.38;5050138;28;20037;-69
2021/01/31 03:19:57;;;;;;;20.87;10.60;;;;;;;-0.38;100.00;99831.41;5058283;28;20041;-69
2021/01/31 03:22:40;;;;;;;22.52;10.75;;;;;;;-0.53;100.00;99831.91;5049437;28;20494;-70
2021/01/31 03:25:12;;;;;;;20.67;10.65;;;;;;;-0.49;100.00;99818.56;5050117;28;20104;-70
2021/01/31 03:27:39;;;;;;;;;;;;;;;-0.51;100.00;99819.56;5051868;28;20040;-69
2021/01/31 03:30:07;;;;;;;23.25;10.85;;;;;;;-0.66;100.00;99820.91;5049457;28;19917;-69
2021/01/31 03:32:40;;;;;;;23.58;11.07;;;;;;;-0.56;100.00;99826.75;5051960;28;20505;-69
2021/01/31 03:35:09;;;;;;;20.73;10.32;;;;;;;-0.66;100.00;99825.31;5048874;28;20552;-69
2021/01/31 03:37:44;;;;;;;20.48;11.07;;;;;;;-0.65;100.00;99824.41;5051116;28;20044;-69
2021/01/31 03:40:12;;;;;;;19.15;10.52;;;;;;;-0.62;100.00;99826.97;5050655;28;20078;-69
2021/01/31 03:42:37;;;;;;;19.55;9.57;;;;;;;-0.69;100.00;99835.97;5050930;28;20041;-70
2021/01/31 03:45:07;;;;;;;26.70;11.30;;;;;;;-0.69;100.00;99830.72;5051629;28;20040;-69
2021/01/31 03:47:49;;;;;;;24.08;11.95;;;;;;;-0.62;100.00;99829.59;5049699;28;20037;-69
2021/01/31 03:50:15;;;;;;;22.33;11.13;;;;;;;-0.77;100.00;99833.59;5030782;28;20040;-69
2021/01/31 03:52:41;;;;;;;27.10;11.18;;;;;;;-0.76;100.00;99839.72;5048643;28;20376;-69
2021/01/31 03:55:07;;;;;;;22.63;11.35;;;;;;;-0.81;100.00;99834.59;5051685;28;20514;-69
2021/01/31 03:57:39;;;;;;;23.50;10.60;;;;;;;-0.77;100.00;99843.25;5047590;28;20064;-69
2021/01/31 04:00:12;;;;;;;23.45;10.82;;;;;;;-0.76;100.00;99851.13;5051346;28;20264;-69
2021/01/31 04:02:50;;;;;;;19.23;10.07;;;;;;;-0.83;100.00;99850.47;5046989;28;20036;-70
2021/01/31 04:05:17;;;;;;;24.52;10.88;;;;;;;-0.85;100.00;99840.88;5047622;28;20047;-69
2021/01/31 04:07:45;;;;;;;21.33;11.13;;;;;;;-0.88;100.00;99844.47;5047218;28;20086;-70
2021/01/31 04:10:14;;;;;;;22.35;10.90;;;;;;;-0.85;100.00;99844.38;5050778;28;20037;-69
2021/01/31 04:12:43;;;;;;;26.20;10.98;;;;;;;-0.72;100.00;99838.69;5049918;28;20036;-69
2021/01/31 04:15:29;;;;;;;29.27;13.85;;;;;;;-0.94;100.00;99842.03;5050607;28;20040;-69
2021/01/31 04:17:55;;;;;;;24.27;11.27;;;;;;;-0.95;100.00;99842.09;5044656;28;20495;-69
2021/01/31 04:20:20;;;;;;;21.80;10.43;;;;;;;-1.02;100.00;99836.16;5050590;28;20033;-69
2021/01/31 04:22:46;;;;;;;21.90;10.77;;;;;;;-1.00;100.00;99847.50;5048383;28;20039;-69
2021/01/31 04:25:11;;;;;;;24.02;10.75;;;;;;;-0.90;100.00;99848.91;5050289;28;20037;-69
2021/01/31 04:27:37;;;;;;;23.75;11.57;;;;;;;-0.92;100.00;99840.19;5029002;28;20033;-69
2021/01/31 04:30:06;;;;;;;25.20;11.07;;;;;;;-0.98;100.00;99848.28;5044530;28;20021;-69
2021/01/31 04:32:31;;;;;;;22.23;11.30;;;;;;;-1.00;100.00;99851.91;5048282;28;20029;-69
2021/01/31 04:34:57;;;;;;;22.27;9.98;;;;;;;-1.08;100.00;99854.78;5045974;28;20287;-70
2021/01/31 04:37:23;;;;;;;25.95;11.00;;;;;;;-1.12;100.00;99862.81;5048451;28;20033;-69
2021/01/31 04:39:49;;;;;;;22.70;10.77;;;;;;;-1.05;100.00;99859.91;5048462;28;20037;-69
2021/01/31 04:42:18;;;;;;;26.13;11.00;;;;;;;-1.13;100.00;99861.94;5050069;28;20032;-69
2021/01/31 04:44:44;;;;;;;24.88;10.93;;;;;;;-1.20;100.00;99864.81;5049480;28;20118;-70
2021/01/31 04:47:15;;;;;;;24.33;10.88;;;;;;;-1.19;100.00;99867.41;5049334;28;21577;-70
2021/01/31 04:50:05;;;;;;;23.90;11.98;;;;;;;-1.15;100.00;99868.16;5061504;28;20045;-70
2021/01/31 04:52:49;;;;;;;21.77;11.15;;;;;;;-1.23;100.00;99865.75;5044560;28;20037;-70
2021/01/31 04:55:27;;;;;;;23.58;11.82;;;;;;;-1.27;100.00;99859.72;5040423;28;20041;-69
2021/01/31 04:57:53;;;;;;;25.63;11.98;;;;;;;-1.24;100.00;99861.41;5060201;28;20108;-70
2021/01/31 05:00:24;;;;;;;21.17;10.70;;;;;;;-1.30;100.00;99861.59;5043537;28;20124;-70
2021/01/31 05:02:56;;;;;;;21.95;10.88;;;;;;;-1.20;100.00;99868.31;5050145;28;20414;-70
2021/01/31 05:05:26;;;;;;;21.17;10.68;;;;;;;-1.17;100.00;99870.81;5047121;28;20036;-70
2021/01/31 05:08:05;;;;;;;20.48;10.60;;;;;;;-1.27;100.00;99864.13;5048191;28;20028;-70
2021/01/31 05:10:31;;;;;;;24.25;10.95;;;;;;;-1.28;100.00;99858.00;5049335;28;20033;-70
2021/01/31 05:13:27;;;;;;;21.23;11.13;;;;;;;-1.22;100.00;99867.47;5047221;28;20506;-70
2021/01/31 05:16:12;;;;;;;23.88;11.40;;;;;;;-1.23;100.00;99865.75;5049611;28;20052;-70
2021/01/31 05:18:47;;;;;;;20.80;10.82;;;;;;;-1.30;100.00;99869.50;5044954;28;20037;-69
2021/01/31 05:21:16;;;;;;;25.73;11.10;;;;;;;-1.42;100.00;99869.88;5043401;28;20028;-70
2021/01/31 05:23:47;;;;;;;23.60;11.70;;;;;;;-1.33;100.00;99869.56;5045724;28;20037;-70
2021/01/31 05:26:12;;;;;;;24.52;11.75;;;;;;;-1.43;100.00;99868.13;5048232;28;20037;-70
2021/01/31 05:28:41;;;;;;;24.48;11.93;;;;;;;-1.35;100.00;99876.66;5046019;28;20032;-70
2021/01/31 05:31:12;;;;;;;28.33;11.70;;;;;;;-1.33;100.00;99870.44;5043762;28;20064;-70
2021/01/31 05:33:57;;;;;;;20.40;10.27;;;;;;;-1.31;100.00;99878.31;5046684;28;20524;-70
2021/01/31 05:36:32;;;;;;;23.23;10.93;;;;;;;-1.43;100.00;99878.66;5046810;28;20495;-70
2021/01/31 05:38:59;;;;;;;28.42;11.70;;;;;;;-1.49;100.00;99884.09;5047185;28;20483;-70
2021/01/31 05:41:33;;;;;;;22.65;11.05;;;;;;;-1.50;100.00;99887.63;5049513;28;20028;-70
2021/01/31 05:44:14;;;;;;;23.95;11.30;;;;;;;-1.57;100.00;99875.56;5048959;28;20028;-70
2021/01/31 05:46:55;;;;;;;21.63;10.18;;;;;;;-1.61;100.00;99879.19;5048028;28;20043;-70
2021/01/31 05:49:37;;;;;;;21.08;9.93;;;;;;;-1.61;100.00;99881.81;5046465;28;20104;-70
2021/01/31 05:52:05;;;;;;;24.23;11.13;;;;;;;-1.60;100.00;99881.75;5047786;28;20029;-70
2021/01/31 05:54:35;;;;;;;23.65;10.88;;;;;;;-1.61;100.00;99873.94;5047610;28;20068;-71
2021/01/31 05:57:01;;;;;;;25.80;10.55;;;;;;;-1.49;100.00;99884.09;5049795;28;20055;-71
2021/01/31 05:59:41;;;;;;;24.85;10.95;;;;;;;-1.47;100.00;99879.63;5049350;28;20074;-70
2021/01/31 06:02:08;;;;;;;27.13;11.48;;;;;;;-1.47;100.00;99882.25;5047848;28;20035;-71
2021/01/31 06:04:34;;;;;;;26.45;11.50;;;;;;;-1.61;100.00;99889.72;5049755;28;20036;-71
2021/01/31 06:07:09;;;;;;;25.67;11.52;;;;;;;-1.69;100.00;99887.28;5043624;28;20201;-71
2021/01/31 06:09:41;;;;;;;22.60;10.75;;;;;;;-1.66;100.00;99874.91;5045795;28;20055;-70
2021/01/31 06:12:15;;;;;;;25.27;12.10;;;;;;;-1.68;100.00;99876.72;5048291;28;20037;-71
2021/01/31 06:14:48;;;;;;;27.58;11.35;;;;;;;-1.60;100.00;99875.66;5032272;28;20041;-70
2021/01/31 06:17:19;;;;;;;25.98;11.30;;;;;;;-1.67;100.00;99885.50;5047924;28;20016;-70
2021/01/31 06:19:46;;;;;;;25.65;11.73;;;;;;;-1.69;100.00;99880.25;5043790;28;20035;-70
2021/01/31 06:22:13;;;;;;;27.92;11.73;;;;;;;-1.73;100.00;99878.59;5043695;28;20028;-70
2021/01/31 06:24:47;;;;;;;24.92;12.02;;;;;;;-1.75;100.00;99888.31;5046293;28;20143;-70
2021/01/31 06:27:27;;;;;;;23.50;11.40;;;;;;;-1.78;100.00;99891.03;5043988;28;20036;-70
2021/01/31 06:30:27;;;;;;;22.77;10.93;;;;;;;-1.81;100.00;99890.25;5045687;28;20073;-70
2021/01/31 06:32:53;;;;;;;25.20;12.23;;;;;;;-1.83;100.00;99899.94;5044047;28;20028;-70
2021/01/31 06:35:23;;;;;;;27.27;11.88;;;;;;;-1.87;100.00;99903.56;5042446;28;20041;-70
2021/01/31 06:38:07;;;;;;;22.23;11.13;;;;;;;-1.87;100.00;99908.84;5048306;28;20032;-71
2021/01/31 06:40:38;;;;;;;25.00;11.70;;;;;;;-1.89;100.00;99908.00;5048414;28;20039;-70
2021/01/31 06:43:09;;;;;;;26.48;12.27;;;;;;;-1.95;100.00;99922.19;5041995;28;20111;-70
2021/01/31 06:45:44;;;;;;;24.38;11.85;;;;;;;-1.98;100.00;99917.03;5047172;28;20504;-70
2021/01/31 06:48:24;;;;;;;23.45;11.15;;;;;;;-1.98;100.00;99921.41;5042509;28;20075;-70
2021/01/31 06:51:20;;;;;;;26.20;11.45;;;;;;;-2.00;100.00;99925.84;5049153;28;20039;-70
2021/01/31 06:54:40;;;;;;;31.25;12.90;;;;;;;-1.95;100.00;99911.66;5050380;28;20434;-70
2021/01/31 06:57:24;;;;;;;24.50;12.20;;;;;;;-2.02;100.00;99910.09;5019244;28;20037;-71
2021/01/31 07:00:11;;;;;;;26.70;12.80;;;;;;;-1.95;100.00;99901.13;5052219;28;20032;-70
2021/01/31 07:03:10;;;;;;;26.33;11.93;;;;;;;-2.04;100.00;99901.41;5052000;28;20033;-70
2021/01/31 07:06:12;;;;;;;28.58;12.57;;;;;;;-1.97;100.00;99897.69;5050364;28;20040;-70
2021/01/31 07:09:02;;;;;;;26.03;11.77;;;;;;;-2.10;100.00;99906.81;5047326;28;20044;-71
2021/01/31 07:11:35;;;;;;;29.40;12.52;;;;;;;-2.14;100.00;99889.38;5052087;28;20039;-70
2021/01/31 07:14:17;;;;;;;28.73;13.32;;;;;;;-1.97;100.00;99894.19;5050932;28;20036;-70
2021/01/31 07:16:45;;;;;;;26.08;12.35;;;;;;;-2.11;100.00;99905.97;5050175;28;20059;-69
2021/01/31 07:19:36;;;;;;;30.60;13.60;;;;;;;-2.13;100.00;99926.16;5047281;28;20021;-70
2021/01/31 07:22:16;;;;;;;26.90;12.23;;;;;;;-2.13;100.00;99927.91;5049495;28;20569;-70
2021/01/31 07:24:55;;;;;;;27.05;12.35;;;;;;;-2.16;100.00;99915.69;5033195;28;20402;-71
2021/01/31 07:27:48;;;;;;;33.92;12.63;;;;;;;-2.15;100.00;99924.44;5051531;28;20106;-70
2021/01/31 07:30:16;;;;;;;26.88;12.65;;;;;;;-2.10;100.00;99928.69;5042681;28;20080;-70
2021/01/31 07:32:56;;;;;;;27.65;13.23;;;;;;;-2.11;100.00;99923.50;5051908;28;20036;-70
2021/01/31 07:35:27;;;;;;;29.23;13.18;;;;;;;-2.09;100.00;99934.81;5050959;28;20051;-70
2021/01/31 07:38:08;;;;;;;28.95;12.60;;;;;;;-2.03;100.00;99929.41;5046825;28;20040;-70
2021/01/31 07:40:34;;;;;;;28.98;13.18;;;;;;;-2.06;100.00;99919.84;5042037;28;20083;-70
2021/01/31 07:43:01;;;;;;;34.15;13.63;;;;;;;-1.98;100.00;99924.91;5050371;28;20029;-70
2021/01/31 07:45:27;;;;;;;29.58;12.50;;;;;;;-1.94;100.00;99913.41;5050652;28;20032;-71
2021/01/31 07:48:31;;;;;;;29.48;12.13;;;;;;;-2.03;100.00;99914.50;5049761;28;20066;-71
2021/01/31 07:50:58;;;;;;;27.63;13.35;;;;;;;-1.88;100.00;99896.59;5048062;28;20044;-69
2021/01/31 07:53:37;;;;;;;31.17;12.27;;;;;;;-1.98;100.00;99913.53;5050318;28;20033;-70
2021/01/31 07:56:24;;;;;;;32.05;12.73;;;;;;;-1.99;100.00;99909.16;5045990;28;20119;-70
2021/01/31 07:58:51;;;;;;;32.15;13.05;;;;;;;-1.99;100.00;99915.28;5048709;28;20025;-70
2021/01/31 08:01:56;;;;;;;55.90;21.88;;;;;;;-1.80;100.00;99919.16;5049285;28;20186;-70
2021/01/31 08:04:44;;;;;;;31.88;13.13;;;;;;;-1.93;100.00;99909.88;5017964;28;20108;-71
2021/01/31 08:07:09;;;;;;;33.72;13.48;;;;;;;-1.88;100.00;99913.22;5027957;28;20037;-71
2021/01/31 08:09:50;;;;;;;30.77;12.70;;;;;;;-1.91;100.00;99909.84;5030921;28;20068;-70
2021/01/31 08:12:15;;;;;;;27.42;12.82;;;;;;;-1.87;100.00;99914.97;5047343;28;20032;-70
2021/01/31 08:15:00;;;;;;;29.52;12.45;;;;;;;-1.72;100.00;99925.06;5058296;28;20099;-70
2021/01/31 08:17:37;;;;;;;31.83;13.10;;;;;;;-1.76;100.00;99918.16;5050315;28;20082;-70
2021/01/31 08:20:26;;;;;;;31.50;13.98;;;;;;;-1.69;100.00;99914.47;5048429;28;20029;-70
2021/01/31 08:22:53;;;;;;;30.42;13.85;;;;;;;-1.69;100.00;99903.94;5038436;28;20143;-70
2021/01/31 08:25:18;;;;;;;30.58;13.68;;;;;;;-1.63;100.00;99913.44;5048797;28;20040;-70
2021/01/31 08:27:49;;;;;;;32.90;13.88;;;;;;;-1.58;100.00;99913.28;5051100;28;20403;-70
2021/01/31 08:30:22;;;;;;;29.75;13.25;;;;;;;-1.58;100.00;99921.19;5049819;28;20115;-70
2021/01/31 08:33:00;;;;;;;31.88;13.35;;;;;;;-1.57;100.00;99915.03;5049248;28;20025;-70
2021/01/31 08:35:42;;;;;;;30.88;14.27;;;;;;;-1.50;100.00;99908.69;5032209;28;20390;-70
2021/01/31 08:38:32;;;;;;;32.97;13.82;;;;;;;-1.41;100.00;99909.28;5048899;28;20032;-70
2021/01/31 08:41:01;;;;;;;31.90;13.75;;;;;;;-1.41;100.00;99914.53;5048719;28;20025;-70
2021/01/31 08:43:32;;;;;;;33.25;14.98;;;;;;;-1.41;100.00;99918.94;5050704;28;20089;-70
2021/01/31 08:46:09;;;;;;;30.38;14.38;;;;;;;-1.30;100.00;99917.75;5047965;28;20483;-70
2021/01/31 08:48:35;;;;;;;28.60;14.25;;;;;;;-1.05;100.00;99923.13;5050703;28;20033;-70
2021/01/31 08:51:05;;;;;;;32.63;13.80;;;;;;;-0.73;100.00;99929.19;5049447;28;20498;-70
2021/01/31 08:53:30;;;;;;;33.88;13.38;;;;;;;-0.40;100.00;99933.41;5048472;28;20035;-70
2021/01/31 08:56:28;;;;;;;29.50;12.93;;;;;;;-0.08;100.00;99933.22;5050334;28;20100;-71
2021/01/31 08:58:53;;;;;;;26.70;11.70;;;;;;;0.31;97.81;99927.47;5045660;28;20036;-71
2021/01/31 09:01:19;;;;;;;27.42;12.95;;;;;;;0.62;95.55;99928.09;5047334;28;20037;-71
2021/01/31 09:03:45;;;;;;;26.42;12.30;;;;;;;0.96;93.17;99930.34;5048121;28;20028;-71
2021/01/31 09:06:11;;;;;;;25.73;12.18;;;;;;;1.26;91.92;99941.53;5043020;28;20049;-71
2021/01/31 09:08:40;;;;;;;25.42;12.35;;;;;;;1.49;88.29;99944.13;5047196;28;20094;-70
2021/01/31 09:11:09;;;;;;;23.67;11.38;;;;;;;1.50;87.87;99935.28;5048596;28;20384;-70
2021/01/31 09:13:35;;;;;;;22.88;11.48;;;;;;;1.36;88.35;99934.13;5046011;28;20037;-71
2021/01/31 09:16:24;;;;;;;27.55;12.23;;;;;;;1.16;88.85;99925.19;5048215;28;20039;-71
2021/01/31 09:19:19;;;;;;;25.60;11.93;;;;;;;1.09;89.65;99938.69;5045882;28;20033;-71
2021/01/31 09:21:47;;;;;;;21.70;10.88;;;;;;;0.99;90.95;99943.44;5047303;28;20519;-71
2021/01/31 09:24:16;;;;;;;26.42;12.55;;;;;;;0.92;90.27;99944.63;5049869;28;20496;-71
2021/01/31 09:26:52;;;;;;;23.95;11.90;;;;;;;0.81;90.62;99949.41;5047209;28;20128;-71
2021/01/31 09:29:22;;;;;;;29.98;12.63;;;;;;;0.64;91.42;99936.81;5043302;28;20029;-71
2021/01/31 09:31:53;;;;;;;24.77;12.73;;;;;;;0.69;91.98;99937.53;5047950;28;20182;-71
2021/01/31 09:34:22;;;;;;;24.98;12.13;;;;;;;0.63;91.29;99934.25;5046715;28;20043;-70
2021/01/31 09:37:03;;;;;;;24.40;11.30;;;;;;;0.63;90.86;99928.97;5047057;28;20079;-71
2021/01/31 09:39:28;;;;;;;30.02;13.40;;;;;;;0.52;91.66;99931.13;5046283;28;20140;-71
2021/01/31 09:41:54;;;;;;;30.38;13.48;;;;;;;0.44;91.91;99918.19;5048863;28;20712;-71
2021/01/31 09:44:19;;;;;;;27.13;12.35;;;;;;;0.50;91.88;99917.97;5045247;28;20491;-71
2021/01/31 09:46:45;;;;;;;28.60;12.60;;;;;;;0.57;91.39;99913.34;5047789;28;20251;-71
2021/01/31 09:49:18;;;;;;;27.77;12.10;;;;;;;0.70;90.70;99915.47;5049093;28;20499;-71
2021/01/31 09:51:44;;;;;;;27.55;12.70;;;;;;;0.64;90.34;99917.47;5048849;28;20094;-70
2021/01/31 09:54:19;;;;;;;29.35;13.57;;;;;;;0.68;91.99;99905.91;5045132;28;20528;-70
2021/01/31 09:56:47;;;;;;;28.30;12.13;;;;;;;0.70;91.52;99914.63;5048071;28;20395;-70
2021/01/31 09:59:31;;;;;;;28.65;11.70;;;;;;;0.82;90.93;99914.16;5041675;28;20025;-70
2021/01/31 10:02:10;;;;;;;28.00;12.40;;;;;;;0.87;89.49;99921.91;5043760;28;20047;-71
2021/01/31 10:04:38;;;;;;;27.30;12.30;;;;;;;0.96;88.31;99924.22;5047847;28;20060;-71
2021/01/31 10:07:11;;;;;;;27.35;12.27;;;;;;;0.99;89.28;99914.38;5048555;28;20108;-70
2021/01/31 10:09:41;;;;;;;28.05;11.93;;;;;;;0.98;89.44;99909.16;5044731;28;20052;-70
2021/01/31 10:12:26;;;;;;;30.20;13.07;;;;;;;1.10;89.08;99908.69;5043912;28;20513;-70
2021/01/31 10:15:07;;;;;;;30.23;12.90;;;;;;;1.12;88.92;99906.84;5047343;28;20388;-70
2021/01/31 10:17:45;;;;;;;32.33;14.23;;;;;;;0.97;89.40;99902.16;5045986;28;20036;-70
2021/01/31 10:20:26;;;;;;;25.90;11.98;;;;;;;1.10;89.25;99903.41;5041588;28;20040;-70
2021/01/31 10:22:59;;;;;;;28.65;12.85;;;;;;;1.23;88.45;99899.38;5045763;28;20029;-70
2021/01/31 10:25:24;;;;;;;;;;;;;;;1.21;87.82;99902.06;5050391;28;20032;-70
2021/01/31 10:27:50;;;;;;;27.38;12.30;;;;;;;1.33;87.95;99878.72;5052128;28;19913;-70
2021/01/31 10:30:23;;;;;;;26.63;12.18;;;;;;;1.36;87.24;99878.59;5051136;28;20048;-70
2021/01/31 10:32:49;;;;;;;27.67;13.00;;;;;;;1.36;86.98;99874.16;5050867;28;20029;-70
2021/01/31 10:35:38;;;;;;;23.08;11.68;;;;;;;1.35;87.75;99880.38;5052140;28;20127;-70
2021/01/31 10:38:31;;;;;;;27.98;12.32;;;;;;;1.37;87.97;99875.88;5051105;28;20483;-70
2021/01/31 10:40:59;;;;;;;30.20;12.85;;;;;;;1.40;87.69;99872.25;5047765;28;20040;-69
2021/01/31 10:43:25;;;;;;;28.48;12.70;;;;;;;1.54;86.88;99868.09;5052853;28;20032;-70
2021/01/31 10:45:52;;;;;;;26.60;11.80;;;;;;;1.56;85.13;99866.28;5047990;28;20068;-70
2021/01/31 10:48:17;;;;;;;25.88;11.18;;;;;;;1.56;85.18;99853.06;5052377;28;20403;-70
2021/01/31 10:50:43;;;;;;;26.52;11.65;;;;;;;1.56;84.61;99855.69;5050515;28;20041;-70
2021/01/31 10:53:08;;;;;;;26.55;12.63;;;;;;;1.63;86.09;99849.22;5050434;28;20032;-69
2021/01/31 10:55:34;;;;;;;24.95;12.02;;;;;;;1.61;85.90;99853.72;5052029;28;20033;-70
2021/01/31 10:57:59;;;;;;;27.80;12.77;;;;;;;1.79;84.32;99841.50;5043178;28;20122;-70
2021/01/31 11:00:25;;;;;;;25.55;11.68;;;;;;;1.71;84.26;99848.06;5051065;28;20029;-70
2021/01/31 11:02:50;;;;;;;26.52;12.15;;;;;;;1.68;84.23;99861.38;5051726;28;20071;-71
2021/01/31 11:05:16;;;;;;;27.80;12.43;;;;;;;1.78;83.86;99846.88;5052277;28;20453;-70
2021/01/31 11:07:42;;;;;;;26.10;11.25;;;;;;;1.81;83.66;99852.03;5049869;28;20064;-70
2021/01/31 11:10:09;;;;;;;25.60;12.18;;;;;;;1.83;82.98;99853.69;5051824;28;20037;-70
2021/01/31 11:12:35;;;;;;;23.92;12.40;;;;;;;1.77;83.96;99848.66;5046264;28;20025;-69
2021/01/31 11:15:00;;;;;;;25.60;12.30;;;;;;;1.84;83.77;99838.69;5047713;28;20039;-69
2021/01/31 11:17:27;;;;;;;25.80;11.90;;;;;;;1.89;83.36;99841.97;5050108;28;20061;-71
2021/01/31 11:19:53;;;;;;;26.30;11.80;;;;;;;1.93;82.99;99836.47;5044613;28;20430;-70
2021/01/31 11:22:18;;;;;;;26.10;12.32;;;;;;;1.96;83.54;99839.00;5044623;28;20112;-69
2021/01/31 11:24:44;;;;;;;27.70;12.52;;;;;;;1.97;83.77;99834.59;5048397;28;20470;-70
2021/01/31 11:27:10;;;;;;;25.00;11.48;;;;;;;2.03;83.08;99829.03;5051054;28;20108;-70
2021/01/31 11:29:35;;;;;;;27.58;12.30;;;;;;;1.95;83.56;99831.13;5050391;28;20140;-69
2021/01/31 11:32:01;;;;;;;29.58;13.45;;;;;;;2.10;85.21;99819.03;5048214;28;20073;-70
2021/01/31 11:34:27;;;;;;;28.42;12.25;;;;;;;2.19;84.79;99808.88;5049571;28;20063;-69
2021/01/31 11:36:52;;;;;;;29.00;13.32;;;;;;;2.30;84.83;99808.38;5048668;28;20792;-69
2021/01/31 11:39:18;;;;;;;24.88;11.30;;;;;;;2.24;82.99;99812.19;5051122;28;20025;-70
2021/01/31 11:41:43;;;;;;;24.40;10.82;;;;;;;2.25;82.83;99803.31;5049068;28;20040;-70